Time;durP1;ratioP1;P1;durP2;ratioP2;P2;SDS_P1;SDS_P2;PMS_P1;PMS_P2;Temp;Humidity;BMP_temperature;BMP_pressure;BME280_temperature;BME280_humidity;BME280_pressure;Samples;Min_cycle;Max_cycle;Signal;HPM_P1;HPM_P2
2024/04/10 00:01:06;;;;;;;9.80;7.60;;;;;;;16.27;57.70;99801.16;1778040;79;25557;-69
2024/04/10 00:03:35;;;;;;;13.55;7.85;;;;;;;16.21;57.60;99807.49;1778107;80;25486;-70
2024/04/10 00:06:07;;;;;;;12.25;7.00;;;;;;;16.17;57.71;99812.06;1778047;80;27733;-69
2024/04/10 00:08:37;;;;;;;10.53;7.25;;;;;;;16.11;58.09;99814.30;1777911;80;25312;-69
2024/04/10 00:11:06;;;;;;;12.68;7.40;;;;;;;16.06;57.93;99812.63;1777965;79;25508;-70
2024/04/10 00:13:38;;;;;;;11.30;7.40;;;;;;;16.02;58.22;99805.52;1778072;80;26364;-69
2024/04/10 00:16:09;;;;;;;11.97;7.62;;;;;;;15.96;58.39;99807.74;1777985;80;25362;-69
2024/04/10 00:18:39;;;;;;;13.90;7.30;;;;;;;15.90;58.56;99801.56;1777983;80;27471;-69
2024/04/10 00:21:07;;;;;;;13.50;8.53;;;;;;;15.85;58.98;99806.71;1778114;80;25362;-69
2024/04/10 00:23:36;;;;;;;11.68;7.62;;;;;;;15.80;58.92;99813.80;1778120;80;25492;-70
2024/04/10 00:26:04;;;;;;;11.05;7.65;;;;;;;15.77;59.20;99808.50;1778188;80;32390;-69
2024/04/10 00:28:33;;;;;;;11.15;7.80;;;;;;;15.72;59.44;99818.30;1778196;80;25379;-69
2024/04/10 00:31:07;;;;;;;10.73;7.80;;;;;;;15.66;59.21;99810.97;1778098;80;27353;-70
2024/04/10 00:33:38;;;;;;;13.80;8.73;;;;;;;15.60;59.83;99808.28;1777892;80;25388;-70
2024/04/10 00:36:09;;;;;;;9.85;7.05;;;;;;;15.55;59.38;99814.02;1778011;80;25514;-69
2024/04/10 00:38:38;;;;;;;12.80;7.30;;;;;;;15.48;59.61;99818.72;1778002;80;25564;-69
2024/04/10 00:41:07;;;;;;;13.03;8.50;;;;;;;15.43;60.13;99817.63;1778045;80;25513;-69
2024/04/10 00:43:35;;;;;;;10.32;7.10;;;;;;;15.39;60.13;99815.95;1778191;80;27456;-69
2024/04/10 00:46:23;;;;;;;17.93;8.27;;;;;;;15.35;60.32;99817.81;1778293;79;25851;-70
2024/04/10 00:48:51;;;;;;;12.13;7.92;;;;;;;15.31;60.52;99819.88;1778089;79;25485;-70
2024/04/10 00:51:22;;;;;;;13.48;7.55;;;;;;;15.28;60.92;99817.84;1778199;80;25556;-70
2024/04/10 00:53:50;;;;;;;11.65;7.45;;;;;;;15.27;60.93;99816.84;1778216;80;25299;-69
2024/04/10 00:56:18;;;;;;;9.08;6.95;;;;;;;15.24;60.83;99818.34;1778170;80;27385;-69
2024/04/10 00:58:48;;;;;;;11.15;7.28;;;;;;;15.20;61.17;99817.45;1777987;80;25401;-69
2024/04/10 01:01:16;;;;;;;;;;;;;;;15.14;61.13;99813.42;1780708;80;25353;-69
2024/04/10 01:03:44;;;;;;;12.18;7.90;;;;;;;15.09;61.45;99817.19;1778074;80;26241;-69
2024/04/10 01:06:12;;;;;;;13.10;7.45;;;;;;;15.05;61.46;99816.33;1778224;80;25392;-69
2024/04/10 01:08:40;;;;;;;11.57;7.47;;;;;;;15.00;61.65;99820.67;1778109;80;27747;-67
2024/04/10 01:11:10;;;;;;;11.83;7.33;;;;;;;14.99;61.48;99822.38;1777960;80;26023;-68
2024/04/10 01:13:39;;;;;;;9.03;7.45;;;;;;;14.96;61.72;99826.58;1778092;79;25528;-69
2024/04/10 01:16:07;;;;;;;11.57;7.33;;;;;;;14.95;61.79;99829.09;1778071;79;26106;-70
2024/04/10 01:18:34;;;;;;;14.95;7.33;;;;;;;14.91;61.79;99830.37;1778078;80;25454;-70
2024/04/10 01:21:01;;;;;;;11.85;7.47;;;;;;;14.90;62.32;99839.67;1778046;79;27292;-69
2024/04/10 01:23:30;;;;;;;11.55;7.40;;;;;;;14.89;62.14;99832.63;1778058;80;25385;-69
2024/04/10 01:25:58;;;;;;;8.38;7.47;;;;;;;14.88;62.24;99838.42;1778024;80;25313;-69
2024/04/10 01:28:25;;;;;;;9.45;7.83;;;;;;;14.86;62.39;99836.62;1777955;80;25560;-69
2024/04/10 01:30:53;;;;;;;13.40;7.92;;;;;;;14.83;62.39;99829.14;1777879;80;25792;-68
2024/04/10 01:33:22;;;;;;;11.18;7.53;;;;;;;14.81;62.48;99839.02;1778238;80;27555;-68
2024/04/10 01:35:50;;;;;;;10.20;8.13;;;;;;;14.77;62.75;99837.36;1778030;79;25511;-68
2024/04/10 01:38:18;;;;;;;16.70;8.43;;;;;;;14.71;63.05;99843.06;1778177;79;32282;-69
2024/04/10 01:40:45;;;;;;;11.43;8.08;;;;;;;14.67;63.08;99844.88;1777976;80;25365;-68
2024/04/10 01:43:12;;;;;;;11.20;8.25;;;;;;;14.60;62.96;99841.96;1778081;80;25462;-69
2024/04/10 01:45:40;;;;;;;10.55;7.97;;;;;;;14.56;63.09;99841.84;1777982;80;27342;-69
2024/04/10 01:48:08;;;;;;;8.95;7.47;;;;;;;14.48;63.40;99846.07;1777975;80;27239;-68
2024/04/10 01:50:35;;;;;;;9.80;7.97;;;;;;;14.48;63.40;99846.07;1778100;80;25528;-68
2024/04/10 01:53:04;;;;;;;13.20;8.03;;;;;;;14.46;63.55;99844.27;1778061;80;26093;-69
2024/04/10 01:55:31;;;;;;;12.67;8.40;;;;;;;14.42;63.70;99847.44;1778325;80;25313;-68
2024/04/10 01:58:02;;;;;;;11.93;8.13;;;;;;;14.38;63.61;99842.69;1777996;80;27369;-68
2024/04/10 02:00:29;;;;;;;10.40;8.13;;;;;;;14.32;63.57;99841.36;1777941;80;26028;-69
2024/04/10 02:02:57;;;;;;;9.35;7.72;;;;;;;14.29;63.58;99841.27;1778017;80;25436;-69
2024/04/10 02:05:26;;;;;;;11.22;8.00;;;;;;;14.23;63.73;99843.98;1777981;80;25615;-69
2024/04/10 02:07:53;;;;;;;11.25;8.40;;;;;;;14.19;64.10;99853.41;1778062;80;25324;-68
2024/04/10 02:10:21;;;;;;;12.65;8.50;;;;;;;14.15;64.13;99850.59;1777985;80;28078;-68
2024/04/10 02:12:49;;;;;;;12.60;8.68;;;;;;;14.12;64.21;99858.06;1778113;80;26989;-68
2024/04/10 02:15:16;;;;;;;11.40;7.78;;;;;;;14.09;64.40;99857.97;1778008;80;25419;-68
2024/04/10 02:17:44;;;;;;;15.98;8.98;;;;;;;14.05;64.93;99855.72;1777971;80;25494;-68
2024/04/10 02:20:15;;;;;;;12.43;8.48;;;;;;;13.98;64.72;99851.64;1778060;79;25490;-68
2024/04/10 02:22:42;;;;;;;12.35;8.63;;;;;;;13.93;65.18;99868.77;1777571;80;27542;-69
2024/04/10 02:25:09;;;;;;;11.93;8.50;;;;;;;13.93;65.18;99868.77;1778099;80;25460;-68
2024/04/10 02:27:36;;;;;;;9.40;7.62;;;;;;;13.87;65.16;99865.46;1778027;79;25524;-69
2024/04/10 02:30:07;;;;;;;13.15;7.55;;;;;;;13.83;65.42;99870.80;1777983;80;25551;-69
2024/04/10 02:32:41;;;;;;;10.32;8.53;;;;;;;13.82;65.10;99864.33;1790864;80;25408;-70
2024/04/10 02:35:08;;;;;;;12.90;8.23;;;;;;;13.79;64.96;99867.73;1763639;81;28006;-70
2024/04/10 02:37:35;;;;;;;14.50;8.55;;;;;;;13.75;65.57;99869.55;1794824;80;25482;-70
2024/04/10 02:40:06;;;;;;;12.07;8.10;;;;;;;13.69;65.69;99871.72;1763504;81;25304;-68
2024/04/10 02:42:34;;;;;;;13.62;8.45;;;;;;;13.63;65.91;99861.63;1775000;80;25479;-69
2024/04/10 02:45:05;;;;;;;14.28;8.48;;;;;;;13.60;66.15;99871.02;1775132;80;25530;-68
2024/04/10 02:47:33;;;;;;;12.30;8.53;;;;;;;13.56;66.44;99871.48;1775003;80;27347;-68
2024/04/10 02:50:00;;;;;;;11.28;8.50;;;;;;;13.53;65.89;99883.02;1774837;80;25673;-69
2024/04/10 02:52:27;;;;;;;12.28;8.95;;;;;;;13.50;66.00;99880.98;1774959;80;25359;-69
2024/04/10 02:54:54;;;;;;;14.15;8.83;;;;;;;13.46;66.22;99880.86;1774941;80;25580;-69
2024/04/10 02:57:21;;;;;;;12.35;9.60;;;;;;;13.44;66.52;99879.84;1774978;80;25496;-69
2024/04/10 02:59:48;;;;;;;12.88;9.08;;;;;;;13.41;66.61;99883.80;1774942;80;27925;-70
2024/04/10 03:02:16;;;;;;;12.10;8.53;;;;;;;13.37;66.93;99891.84;1774886;80;25380;-70
2024/04/10 03:04:43;;;;;;;14.87;8.65;;;;;;;13.34;67.19;99886.29;1774922;80;25471;-69
2024/04/10 03:07:10;;;;;;;13.68;9.00;;;;;;;13.32;67.00;99889.91;1748845;80;25576;-70
2024/04/10 03:09:40;;;;;;;13.38;8.70;;;;;;;13.26;66.92;99888.74;1775128;80;25444;-70
2024/04/10 03:12:08;;;;;;;12.65;8.68;;;;;;;13.23;67.50;99887.27;1775081;80;27421;-69
2024/04/10 03:14:37;;;;;;;12.53;8.83;;;;;;;13.19;67.83;99893.91;1774901;80;25765;-69
2024/04/10 03:17:05;;;;;;;13.70;8.73;;;;;;;13.17;67.92;99902.17;1775029;80;25488;-69
2024/04/10 03:19:32;;;;;;;16.20;8.88;;;;;;;13.17;68.26;99917.11;1774898;80;25543;-69
2024/04/10 03:22:00;;;;;;;12.30;8.73;;;;;;;13.15;68.36;99920.73;1774966;80;25340;-69
2024/04/10 03:24:27;;;;;;;11.93;8.13;;;;;;;13.15;68.61;99921.52;1774926;80;27973;-69
2024/04/10 03:26:54;;;;;;;12.45;8.80;;;;;;;13.14;68.73;99936.78;1774857;80;25402;-70
2024/04/10 03:29:22;;;;;;;13.40;9.23;;;;;;;13.13;69.73;99937.91;1774892;80;25481;-69
2024/04/10 03:31:49;;;;;;;17.32;9.30;;;;;;;13.10;69.16;99935.88;1794745;80;25468;-69
2024/04/10 03:34:17;;;;;;;15.78;9.15;;;;;;;13.10;69.31;99943.45;1763542;81;25525;-70
2024/04/10 03:36:45;;;;;;;;;;;;;;;13.11;69.76;99945.05;1777620;80;28217;-69
2024/04/10 03:39:12;;;;;;;16.40;9.55;;;;;;;13.12;69.84;99948.55;1774857;80;25938;-69
2024/04/10 03:41:40;;;;;;;12.75;9.33;;;;;;;13.11;69.53;99951.02;1774931;80;25527;-69
2024/04/10 03:44:08;;;;;;;12.63;9.33;;;;;;;13.12;69.51;99952.63;1783397;80;25479;-68
2024/04/10 03:46:36;;;;;;;15.15;10.13;;;;;;;13.11;69.85;99965.96;1783591;80;33084;-68
2024/04/10 03:49:05;;;;;;;12.60;9.28;;;;;;;13.11;70.02;99971.39;1783590;80;27345;-69
2024/04/10 03:51:32;;;;;;;14.10;9.33;;;;;;;13.11;70.25;99972.20;1783390;80;25724;-69
2024/04/10 03:53:59;;;;;;;14.25;8.93;;;;;;;13.11;70.06;99972.75;1783495;80;25614;-69
2024/04/10 03:56:26;;;;;;;19.25;9.40;;;;;;;13.12;70.25;99975.70;1783476;80;25528;-68
2024/04/10 03:58:54;;;;;;;16.15;8.83;;;;;;;13.13;70.23;99976.73;1783608;80;25350;-69
2024/04/10 04:01:21;;;;;;;13.03;9.15;;;;;;;13.13;70.43;99982.16;1783783;80;27296;-69
2024/04/10 04:03:48;;;;;;;13.32;8.98;;;;;;;13.13;70.58;99982.16;1784580;80;25905;-69
2024/04/10 04:06:15;;;;;;;13.50;8.98;;;;;;;13.11;70.54;99969.48;1784443;80;25385;-69
2024/04/10 04:08:42;;;;;;;13.88;9.63;;;;;;;13.14;70.27;99981.02;1784644;80;25528;-69
2024/04/10 04:11:09;;;;;;;13.95;9.48;;;;;;;13.15;70.59;99979.91;1784680;80;25463;-68
2024/04/10 04:13:37;;;;;;;11.88;8.95;;;;;;;13.17;70.72;99986.36;1784342;80;27370;-69
2024/04/10 04:16:08;;;;;;;23.05;9.30;;;;;;;13.16;70.82;99986.94;1783958;80;25168;-69
2024/04/10 04:18:36;;;;;;;11.20;9.50;;;;;;;13.19;70.92;99990.31;1783628;80;25313;-68
2024/04/10 04:21:07;;;;;;;18.32;9.73;;;;;;;13.19;70.88;100003.89;1783674;80;25630;-69
2024/04/10 04:23:36;;;;;;;15.18;8.88;;;;;;;13.21;71.15;100011.17;1783627;80;25322;-69
2024/04/10 04:26:04;;;;;;;15.25;10.20;;;;;;;13.21;71.37;100014.42;1783701;80;32723;-69
2024/04/10 04:28:31;;;;;;;19.48;9.28;;;;;;;13.21;71.06;100013.07;1783545;80;25771;-69
2024/04/10 04:30:58;;;;;;;13.93;9.23;;;;;;;13.24;71.28;100016.48;1783549;80;25370;-69
2024/04/10 04:33:26;;;;;;;17.00;9.33;;;;;;;13.24;71.45;100019.98;1783455;80;25463;-68
2024/04/10 04:35:53;;;;;;;15.98;8.85;;;;;;;13.29;71.31;100020.92;1783590;80;25475;-68
2024/04/10 04:38:20;;;;;;;14.40;9.00;;;;;;;13.32;71.53;100026.51;1783604;79;27375;-69
2024/04/10 04:40:47;;;;;;;13.58;9.73;;;;;;;13.34;71.48;100035.11;1783492;80;25449;-68
2024/04/10 04:43:14;;;;;;;19.55;10.43;;;;;;;13.38;71.87;100048.27;1783609;80;25335;-69
2024/04/10 04:45:42;;;;;;;21.35;9.53;;;;;;;13.41;71.89;100052.23;1783539;80;25556;-69
2024/04/10 04:48:11;;;;;;;15.08;10.65;;;;;;;13.43;71.92;100059.48;1783571;79;25547;-68
2024/04/10 04:50:41;;;;;;;14.63;10.43;;;;;;;13.49;72.46;100074.45;1755239;80;27268;-68
2024/04/10 04:53:13;;;;;;;19.10;10.55;;;;;;;13.53;72.36;100075.36;1783556;80;25436;-68
2024/04/10 04:55:43;;;;;;;18.15;10.15;;;;;;;13.58;72.62;100078.45;1783654;80;25503;-69
2024/04/10 04:58:11;;;;;;;13.85;10.25;;;;;;;13.66;72.64;100084.37;1783589;80;25503;-69
2024/04/10 05:00:40;;;;;;;15.03;10.35;;;;;;;13.74;72.79;100089.48;1783680;80;25385;-70
2024/04/10 05:03:13;;;;;;;28.98;11.83;;;;;;;13.82;73.04;100089.41;1783763;80;27436;-70
2024/04/10 05:05:36;;;;;;;20.90;10.38;;;;;;;13.91;73.02;100101.56;1782761;80;25532;-71
2024/04/10 05:08:05;;;;;;;18.17;10.90;;;;;;;13.99;72.86;100106.66;1783774;80;25459;-70
2024/04/10 05:10:33;;;;;;;21.42;11.10;;;;;;;14.07;72.91;100106.35;1783412;80;25500;-71
2024/04/10 05:13:00;;;;;;;20.85;11.30;;;;;;;14.19;72.83;100116.67;1783502;79;25491;-71
2024/04/10 05:15:28;;;;;;;18.10;11.00;;;;;;;14.29;72.67;100114.66;1784099;80;27515;-72
2024/04/10 05:17:55;;;;;;;16.23;11.57;;;;;;;14.37;72.54;100119.21;1784809;80;25310;-71
2024/04/10 05:20:25;;;;;;;17.30;11.95;;;;;;;14.47;72.40;100132.37;1784806;80;25130;-71
2024/04/10 05:22:52;;;;;;;;;;;;;;;14.57;72.30;100136.55;1787519;80;25571;-71
2024/04/10 05:25:20;;;;;;;21.75;11.65;;;;;;;14.64;72.36;100139.56;1783564;80;25479;-71
2024/04/10 05:27:49;;;;;;;17.37;11.75;;;;;;;14.73;72.23;100154.41;1783618;80;27414;-70
2024/04/10 05:30:16;;;;;;;16.97;11.83;;;;;;;14.83;72.17;100162.67;1783742;79;25578;-70
2024/04/10 05:32:43;;;;;;;16.70;11.30;;;;;;;14.90;72.06;100159.63;1783563;80;25540;-69
2024/04/10 05:35:13;;;;;;;14.47;11.48;;;;;;;14.99;71.91;100179.92;1783652;80;25459;-69
2024/04/10 05:37:40;;;;;;;;;;;;;;;15.07;71.82;100187.77;1757779;80;25529;-70
2024/04/10 05:40:16;;;;;;;17.07;11.70;;;;;;;15.15;71.80;100190.13;1783580;80;27410;-70
2024/04/10 05:42:46;;;;;;;17.23;12.30;;;;;;;15.21;71.75;100199.67;1783591;80;25684;-70
2024/04/10 05:45:15;;;;;;;17.05;12.45;;;;;;;15.29;71.81;100204.20;1783717;80;25100;-70
2024/04/10 05:47:49;;;;;;;24.35;12.13;;;;;;;15.39;71.80;100213.27;1783626;80;25499;-70
2024/04/10 05:50:18;;;;;;;16.25;12.25;;;;;;;15.50;71.74;100210.86;1783623;80;25511;-70
2024/04/10 05:52:45;;;;;;;18.73;12.18;;;;;;;15.61;71.90;100219.34;1783851;80;27371;-70
2024/04/10 05:55:13;;;;;;;21.55;12.13;;;;;;;15.73;71.86;100228.84;1783555;80;25436;-70
2024/04/10 05:57:41;;;;;;;14.93;12.98;;;;;;;15.87;71.98;100238.06;1783911;79;25315;-70
2024/04/10 06:00:10;;;;;;;15.95;11.78;;;;;;;16.01;71.59;100248.00;1783520;80;25543;-71
2024/04/10 06:02:38;;;;;;;;;;;;;;;16.11;71.35;100241.84;1786247;79;25376;-70
2024/04/10 06:05:08;;;;;;;20.32;11.83;;;;;;;16.23;71.19;100248.03;1783662;80;27351;-70
2024/04/10 06:07:37;;;;;;;16.10;11.90;;;;;;;16.36;71.07;100261.06;1783696;80;25326;-70
2024/04/10 06:10:07;;;;;;;13.90;11.43;;;;;;;16.52;70.92;100267.91;1783502;80;25536;-70
2024/04/10 06:12:34;;;;;;;19.35;11.33;;;;;;;16.66;70.60;100271.58;1783511;80;25384;-70
2024/04/10 06:15:01;;;;;;;18.23;11.22;;;;;;;16.84;70.64;100284.37;1783554;80;25479;-70
2024/04/10 06:17:28;;;;;;;17.02;11.75;;;;;;;17.01;70.31;100288.70;1783534;80;27555;-70
2024/04/10 06:19:58;;;;;;;22.13;11.48;;;;;;;17.15;69.95;100286.30;1783434;80;25325;-69
2024/04/10 06:22:26;;;;;;;20.92;11.60;;;;;;;17.31;69.56;100294.48;1783533;80;25480;-70
2024/04/10 06:24:53;;;;;;;16.62;10.75;;;;;;;17.49;69.13;100299.59;1783480;80;25599;-70
2024/04/10 06:27:21;;;;;;;22.35;11.22;;;;;;;17.64;68.82;100296.59;1783554;80;25479;-71
2024/04/10 06:29:49;;;;;;;18.62;10.95;;;;;;;17.82;68.53;100303.83;1783617;80;27435;-71
2024/04/10 06:32:16;;;;;;;20.70;11.63;;;;;;;17.98;68.00;100306.53;1783339;79;25581;-71
2024/04/10 06:34:43;;;;;;;17.67;11.43;;;;;;;18.09;67.44;100313.82;1783585;80;25353;-71
2024/04/10 06:37:12;;;;;;;17.90;10.70;;;;;;;18.15;66.39;100312.98;1783478;80;25437;-70
2024/04/10 06:39:40;;;;;;;23.12;11.28;;;;;;;18.19;66.49;100314.41;1783676;80;25521;-70
2024/04/10 06:42:07;;;;;;;22.90;10.80;;;;;;;18.25;66.33;100320.62;1783534;79;27377;-70
2024/04/10 06:44:34;;;;;;;16.45;10.03;;;;;;;18.36;66.54;100322.77;1783427;80;25648;-70
2024/04/10 06:47:02;;;;;;;18.45;9.63;;;;;;;18.40;65.71;100323.04;1783489;80;25338;-70
2024/04/10 06:49:31;;;;;;;;;;;;;;;18.44;65.38;100325.88;1786186;80;25583;-70
2024/04/10 06:52:00;;;;;;;18.95;8.68;;;;;;;18.41;64.70;100323.27;1783694;80;25535;-70
2024/04/10 06:54:27;;;;;;;20.52;10.32;;;;;;;18.37;64.72;100342.14;1783503;79;27346;-70
2024/04/10 06:56:54;;;;;;;15.95;9.78;;;;;;;18.34;64.38;100352.44;1783405;80;25499;-71
2024/04/10 06:59:22;;;;;;;15.70;9.23;;;;;;;18.26;64.16;100350.14;1783652;80;25330;-70
2024/04/10 07:01:51;;;;;;;17.17;9.73;;;;;;;18.21;64.24;100365.48;1783588;80;25585;-69
2024/04/10 07:04:22;;;;;;;15.75;8.88;;;;;;;18.22;64.23;100361.61;1783735;80;25449;-70
2024/04/10 07:06:49;;;;;;;18.55;9.33;;;;;;;18.25;64.29;100377.30;1783515;79;27364;-71
2024/04/10 07:09:17;;;;;;;17.35;9.15;;;;;;;18.25;64.16;100379.48;1783420;79;25731;-70
2024/04/10 07:11:46;;;;;;;14.90;9.25;;;;;;;18.25;63.91;100381.40;1783468;80;25353;-70
2024/04/10 07:14:13;;;;;;;16.07;8.95;;;;;;;18.22;63.94;100379.41;1783427;80;25544;-70
2024/04/10 07:16:42;;;;;;;18.75;9.55;;;;;;;18.25;64.23;100384.95;1783546;79;25343;-70
2024/04/10 07:19:10;;;;;;;16.45;10.55;;;;;;;18.27;64.42;100391.44;1783654;80;27400;-69
2024/04/10 07:21:37;;;;;;;16.87;11.33;;;;;;;18.27;63.96;100392.81;1783411;80;25716;-70
2024/04/10 07:24:06;;;;;;;20.17;10.20;;;;;;;18.18;63.69;100412.73;1783481;80;25523;-71
2024/04/10 07:26:33;;;;;;;16.85;10.10;;;;;;;18.07;63.41;100409.19;1783601;80;33910;-70
2024/04/10 07:29:00;;;;;;;15.18;10.45;;;;;;;18.00;63.68;100415.09;1783482;80;25328;-70
2024/04/10 07:31:39;;;;;;;17.23;10.23;;;;;;;17.92;63.77;100425.84;1783429;79;27272;-69
2024/04/10 07:34:07;;;;;;;15.15;9.53;;;;;;;17.88;63.95;100427.72;1779810;80;25687;-71
2024/04/10 07:36:37;;;;;;;12.73;8.95;;;;;;;17.84;63.93;100432.84;1777777;80;25463;-70
2024/04/10 07:39:06;;;;;;;11.55;8.25;;;;;;;17.78;63.79;100431.55;1777824;80;25521;-70
2024/04/10 07:41:33;;;;;;;12.85;8.60;;;;;;;17.71;63.66;100437.05;1777873;80;25448;-70
2024/04/10 07:44:00;;;;;;;13.95;8.95;;;;;;;17.66;63.43;100440.06;1747494;80;27879;-69
2024/04/10 07:46:28;;;;;;;14.20;8.53;;;;;;;17.59;63.31;100440.44;1777860;80;25448;-70
2024/04/10 07:48:58;;;;;;;16.85;8.83;;;;;;;17.47;63.14;100457.72;1778003;80;32254;-70
2024/04/10 07:51:30;;;;;;;12.47;8.75;;;;;;;17.37;63.22;100460.42;1778000;80;25518;-70
2024/04/10 07:53:57;;;;;;;13.58;8.68;;;;;;;17.24;63.18;100461.05;1749493;80;25484;-70
2024/04/10 07:56:26;;;;;;;12.68;7.58;;;;;;;17.16;63.54;100473.75;1777820;80;27957;-70
2024/04/10 07:58:53;;;;;;;14.23;8.33;;;;;;;17.14;63.63;100480.11;1777976;80;25485;-70
2024/04/10 08:01:22;;;;;;;12.05;8.13;;;;;;;17.11;63.72;100480.02;1777903;80;25526;-69
2024/04/10 08:03:51;;;;;;;13.78;8.25;;;;;;;17.04;63.61;100488.02;1777922;80;25598;-70
2024/04/10 08:06:18;;;;;;;10.80;7.58;;;;;;;16.98;63.79;100495.68;1777995;80;26023;-70
2024/04/10 08:08:45;;;;;;;21.73;8.28;;;;;;;17.01;63.85;100496.91;1777884;80;28048;-70
2024/04/10 08:11:20;;;;;;;13.00;7.87;;;;;;;17.01;63.87;100501.01;1777739;80;25488;-71
2024/04/10 08:13:47;;;;;;;13.55;7.97;;;;;;;16.99;63.60;100515.02;1777944;80;25531;-70
2024/04/10 08:16:15;;;;;;;12.75;7.60;;;;;;;16.96;63.43;100512.42;1777912;80;25506;-71
2024/04/10 08:18:45;;;;;;;12.93;8.35;;;;;;;16.95;63.48;100523.11;1778083;80;25488;-71
2024/04/10 08:21:15;;;;;;;14.28;7.42;;;;;;;16.96;63.32;100526.66;1777979;80;27355;-70
2024/04/10 08:23:46;;;;;;;12.85;8.15;;;;;;;16.98;63.55;100529.84;1777901;80;25558;-70
2024/04/10 08:26:16;;;;;;;13.95;7.97;;;;;;;17.03;63.52;100536.42;1777908;80;25388;-70
2024/04/10 08:28:48;;;;;;;11.70;7.65;;;;;;;17.06;63.47;100542.56;1777855;80;25538;-70
2024/04/10 08:31:20;;;;;;;14.40;7.87;;;;;;;17.07;63.52;100541.41;1777971;80;25304;-70
2024/04/10 08:33:51;;;;;;;13.30;7.72;;;;;;;17.08;63.30;100545.74;1777760;80;27958;-69
2024/04/10 08:36:23;;;;;;;9.38;7.25;;;;;;;17.09;63.27;100551.41;1777722;80;25373;-67
2024/04/10 08:38:51;;;;;;;62.67;36.30;;;;;;;17.08;63.21;100553.16;1777967;80;25460;-68
2024/04/10 08:41:22;;;;;;;21.00;12.80;;;;;;;17.07;62.80;100557.02;1777937;80;32784;-68
2024/04/10 08:43:52;;;;;;;10.78;7.37;;;;;;;17.02;62.52;100571.70;1777837;80;25309;-67
2024/04/10 08:46:22;;;;;;;8.38;6.20;;;;;;;16.95;62.15;100575.60;1777760;80;27259;-62
2024/04/10 08:48:54;;;;;;;;;;;;;;;16.89;62.16;100577.79;1780265;80;27238;-61
2024/04/10 08:51:23;;;;;;;7.75;4.67;;;;;;;16.88;62.24;100582.23;1777824;80;25473;-62
2024/04/10 08:53:54;;;;;;;7.40;4.12;;;;;;;16.85;62.17;100589.16;1777855;80;25556;-62
2024/04/10 08:56:21;;;;;;;8.30;4.25;;;;;;;16.85;61.81;100580.18;1777820;80;25502;-62
2024/04/10 08:58:49;;;;;;;8.05;4.55;;;;;;;16.86;61.60;100587.25;1777796;80;27383;-59
2024/04/10 09:01:33;;;;;;;11.60;4.08;;;;;;;16.85;61.28;100580.97;1777692;80;25306;-61
2024/04/10 09:04:09;;;;;;;8.50;5.72;;;;;;;16.86;61.32;100597.59;1777820;80;25331;-61
2024/04/10 09:06:37;;;;;;;7.60;4.42;;;;;;;16.90;61.29;100600.44;1777785;80;25534;-62
2024/04/10 09:09:08;;;;;;;9.78;4.17;;;;;;;16.96;61.18;100601.80;1777790;80;25544;-62
2024/04/10 09:11:39;;;;;;;5.05;3.62;;;;;;;16.98;60.83;100604.39;1777748;80;27345;-61
2024/04/10 09:14:11;;;;;;;5.58;3.55;;;;;;;17.06;61.00;100609.52;1777711;80;25486;-61
2024/04/10 09:16:38;;;;;;;6.37;3.08;;;;;;;17.18;60.77;100613.58;1777783;80;25390;-61
2024/04/10 09:19:18;;;;;;;3.77;2.87;;;;;;;17.31;60.64;100625.26;1777707;80;25508;-60
2024/04/10 09:21:57;;;;;;;6.80;2.83;;;;;;;17.43;60.08;100618.17;1777850;80;25319;-71
2024/04/10 09:24:27;;;;;;;29.15;19.48;;;;;;;17.54;59.50;100628.27;1777720;80;28037;-67
2024/04/10 09:26:55;;;;;;;29.60;16.90;;;;;;;17.68;59.00;100627.08;1776502;80;25587;-67
2024/04/10 09:29:29;;;;;;;6.08;4.20;;;;;;;17.80;58.60;100642.06;1777004;80;25633;-68
2024/04/10 09:32:04;;;;;;;5.55;2.55;;;;;;;17.92;58.44;100640.66;1777435;80;25571;-68
2024/04/10 09:34:26;;;;;;;49.05;33.80;;;;;;;18.14;58.50;100643.96;1776676;80;25488;-68
2024/04/10 09:36:53;;;;;;;69.67;56.08;;;;;;;18.30;57.22;100648.07;1778148;80;27378;-69
2024/04/10 09:39:24;;;;;;;5.55;4.22;;;;;;;18.37;56.12;100653.75;1777937;80;25334;-69
2024/04/10 09:41:58;;;;;;;4.53;2.42;;;;;;;18.43;56.00;100655.05;1777860;80;25353;-62
2024/04/10 09:44:31;;;;;;;4.28;2.62;;;;;;;18.57;55.50;100657.34;1776552;80;25620;-62
2024/04/10 09:47:01;;;;;;;5.58;2.75;;;;;;;18.68;55.60;100658.99;1777839;80;25503;-60
2024/04/10 09:49:30;;;;;;;;;;;;;;;18.91;55.03;100660.52;1780400;80;27415;-62
2024/04/10 09:51:59;;;;;;;4.12;2.30;;;;;;;19.20;54.79;100670.17;1776718;80;25520;-60
2024/04/10 09:54:28;;;;;;;3.17;1.53;;;;;;;19.69;55.62;100663.34;1777984;80;25484;-62
2024/04/10 09:56:57;;;;;;;4.20;1.82;;;;;;;20.40;54.79;100667.79;1777855;80;25561;-61
2024/04/10 09:59:25;;;;;;;5.30;1.70;;;;;;;21.07;54.14;100668.08;1777852;80;25505;-62
2024/04/10 10:01:54;;;;;;;7.53;1.65;;;;;;;21.80;53.07;100672.57;1777764;80;27346;-61
2024/04/10 10:04:21;;;;;;;3.12;1.70;;;;;;;22.52;50.63;100676.03;1777761;80;25481;-62
2024/04/10 10:06:49;;;;;;;5.20;1.62;;;;;;;22.99;48.33;100679.14;1777631;80;25356;-61
2024/04/10 10:09:25;;;;;;;8.10;2.08;;;;;;;23.48;47.77;100673.72;1747364;80;25573;-61
2024/04/10 10:11:58;;;;;;;5.53;2.15;;;;;;;24.00;46.34;100678.42;1777751;80;25482;-61
2024/04/10 10:14:27;;;;;;;4.10;2.17;;;;;;;24.47;45.05;100681.25;1777749;80;27419;-61
2024/04/10 10:17:06;;;;;;;14.50;3.13;;;;;;;24.95;44.36;100686.97;1777903;80;25303;-61
2024/04/10 10:19:36;;;;;;;8.20;3.00;;;;;;;25.33;42.79;100699.14;1771962;80;25347;-59
2024/04/10 10:22:04;;;;;;;11.85;8.03;;;;;;;25.68;42.04;100700.81;1777921;80;25554;-67
2024/04/10 10:24:31;;;;;;;31.57;26.55;;;;;;;25.83;40.54;100698.73;1777996;80;25523;-67
2024/04/10 10:27:04;;;;;;;25.82;23.07;;;;;;;26.03;39.91;100704.02;1777866;80;27362;-68
2024/04/10 10:29:32;;;;;;;4.50;2.70;;;;;;;26.21;39.64;100705.88;1777736;80;25535;-67
2024/04/10 10:32:05;;;;;;;5.55;1.77;;;;;;;26.65;40.07;100714.87;1777729;80;25319;-67
2024/04/10 10:34:33;;;;;;;48.08;45.33;;;;;;;26.97;38.74;100721.32;1777747;80;26205;-69
2024/04/10 10:37:08;;;;;;;61.75;58.13;;;;;;;27.07;37.61;100728.75;1777911;80;25494;-69
2024/04/10 10:39:43;;;;;;;5.42;2.40;;;;;;;27.06;37.62;100727.80;1777797;80;27961;-68
2024/04/10 10:42:10;;;;;;;3.25;1.82;;;;;;;27.28;37.56;100726.98;1777647;80;25508;-67
2024/04/10 10:44:37;;;;;;;4.58;1.57;;;;;;;27.33;36.98;100734.88;1777732;80;25307;-67
2024/04/10 10:47:08;;;;;;;5.05;1.72;;;;;;;27.18;36.42;100736.98;1777736;80;25537;-66
2024/04/10 10:49:36;;;;;;;2.98;1.20;;;;;;;27.29;36.83;100739.67;1777826;80;25465;-66
2024/04/10 10:52:05;;;;;;;4.80;2.00;;;;;;;27.58;36.88;100729.02;1777750;80;28040;-65
2024/04/10 10:54:32;;;;;;;;;;;;;;;27.74;35.87;100736.77;1780390;80;25496;-66
2024/04/10 10:57:04;;;;;;;7.35;2.83;;;;;;;27.68;35.59;100741.98;1777778;80;25473;-66
2024/04/10 10:59:31;;;;;;;4.75;1.90;;;;;;;27.66;35.20;100743.62;1777732;80;25555;-66
2024/04/10 11:01:59;;;;;;;5.60;1.60;;;;;;;27.58;34.79;100747.07;1777815;80;25510;-67
2024/04/10 11:04:26;;;;;;;3.35;1.70;;;;;;;27.74;35.27;100752.06;1777778;80;27386;-67
2024/04/10 11:06:53;;;;;;;7.15;1.60;;;;;;;27.84;35.00;100750.33;1777687;80;25524;-67
2024/04/10 11:09:22;;;;;;;3.05;1.70;;;;;;;28.05;35.01;100763.20;1747255;80;25369;-66
2024/04/10 11:11:55;;;;;;;1.77;1.15;;;;;;;28.07;33.82;100764.95;1777801;80;26561;-66
2024/04/10 11:14:23;;;;;;;6.80;1.80;;;;;;;27.97;34.13;100767.27;1776933;80;25383;-74
2024/04/10 11:17:03;;;;;;;8.88;3.12;;;;;;;27.88;33.53;100763.59;1778239;80;27402;-67
2024/04/10 11:19:33;;;;;;;9.43;6.03;;;;;;;27.69;33.75;100779.70;1777993;80;25440;-68
2024/04/10 11:22:00;;;;;;;7.47;3.15;;;;;;;27.54;33.49;100767.95;1777985;80;25436;-67
2024/04/10 11:24:29;;;;;;;4.53;1.77;;;;;;;27.61;33.47;100767.69;1777761;80;25555;-68
2024/04/10 11:26:56;;;;;;;;;;;;;;;27.66;33.53;100775.57;1780166;80;25538;-68
2024/04/10 11:29:23;;;;;;;6.67;2.00;;;;;;;27.55;32.95;100777.88;1777410;80;27263;-68